Time;durP1;ratioP1;P1;durP2;ratioP2;P2;SDS_P1;SDS_P2;PMS_P1;PMS_P2;Temp;Humidity;BMP_temperature;BMP_pressure;BME280_temperature;BME280_humidity;BME280_pressure;Samples;Min_cycle;Max_cycle;Signal;HPM_P1;HPM_P2
2021/06/06 00:00:37;;;;;;;19.58;8.90;;;;;;;13.33;69.77;99331.34;130000;1090;113740;-57
2021/06/06 00:03:07;;;;;;;19.98;8.45;;;;;;;13.29;70.17;99330.25;130117;1088;22532;-57
2021/06/06 00:05:44;;;;;;;24.10;9.00;;;;;;;13.26;70.19;99328.09;130105;1089;22687;-57
2021/06/06 00:08:13;;;;;;;;;;;;;;;13.22;70.47;99329.75;130027;1090;112921;-57
2021/06/06 00:10:41;;;;;;;24.10;8.55;;;;;;;13.19;70.51;99326.75;130121;1090;21248;-57
2021/06/06 00:13:10;;;;;;;16.55;8.28;;;;;;;13.16;70.33;99333.59;129975;1090;114116;-57
2021/06/06 00:15:40;;;;;;;17.15;7.85;;;;;;;13.13;70.57;99325.12;130130;1090;22566;-58
2021/06/06 00:18:09;;;;;;;11.78;7.73;;;;;;;13.09;70.89;99320.20;130021;1089;114102;-57
2021/06/06 00:20:37;;;;;;;21.15;7.95;;;;;;;13.10;70.92;99315.55;130108;1090;22596;-57
2021/06/06 00:23:06;;;;;;;19.98;7.70;;;;;;;13.13;71.63;99325.12;130117;1090;22576;-57
2021/06/06 00:25:35;;;;;;;20.85;7.38;;;;;;;13.10;71.49;99316.37;129973;1090;114599;-57
2021/06/06 00:28:03;;;;;;;29.45;9.05;;;;;;;13.13;71.41;99325.12;130129;1089;23389;-57
2021/06/06 00:30:32;;;;;;;31.88;8.63;;;;;;;13.13;71.72;99325.12;130036;1090;115242;-57
2021/06/06 00:33:01;;;;;;;21.05;7.85;;;;;;;13.14;71.41;99324.81;130140;1089;22571;-57
2021/06/06 00:35:29;;;;;;;24.80;7.85;;;;;;;13.10;71.71;99321.84;130132;1089;22510;-58
2021/06/06 00:37:57;;;;;;;23.55;8.48;;;;;;;13.10;71.70;99321.84;129994;1090;116768;-58
2021/06/06 00:40:28;;;;;;;25.50;9.13;;;;;;;13.06;71.64;99320.75;130119;1090;22884;-56
2021/06/06 00:42:58;;;;;;;18.35;7.63;;;;;;;13.03;71.17;99320.48;129947;1090;114713;-56
2021/06/06 00:45:27;;;;;;;13.05;8.03;;;;;;;13.01;71.08;99320.75;130139;1089;23056;-56
2021/06/06 00:47:56;;;;;;;18.10;8.30;;;;;;;12.98;71.47;99324.07;129989;1090;116691;-56
2021/06/06 00:50:38;;;;;;;24.10;8.68;;;;;;;12.93;71.07;99324.08;130098;1089;22652;-56
2021/06/06 00:53:08;;;;;;;15.20;8.60;;;;;;;12.89;71.18;99316.70;130133;1090;22702;-56
2021/06/06 00:55:39;;;;;;;21.40;9.08;;;;;;;12.85;71.09;99308.22;130025;1089;114278;-56
2021/06/06 00:58:10;;;;;;;28.75;8.13;;;;;;;12.83;71.50;99310.45;130089;1090;22632;-55
2021/06/06 01:00:47;;;;;;;28.13;8.70;;;;;;;12.83;71.71;99309.63;130000;1089;113616;-55
2021/06/06 01:03:17;;;;;;;36.35;9.45;;;;;;;12.81;71.60;99306.34;130111;1090;23379;-55
2021/06/06 01:05:58;;;;;;;46.78;8.40;;;;;;;12.80;71.83;99312.91;130058;1090;22572;-55
2021/06/06 01:08:32;;;;;;;22.90;7.63;;;;;;;12.78;71.92;99306.89;130008;1090;113812;-55
2021/06/06 01:11:38;;;;;;;31.85;7.35;;;;;;;12.77;72.16;99305.25;130119;1090;22677;-55
2021/06/06 01:14:21;;;;;;;16.80;6.85;;;;;;;12.74;72.49;99315.64;130041;1090;113812;-56
2021/06/06 01:17:11;;;;;;;12.15;7.05;;;;;;;12.73;72.37;99302.25;130099;1090;22584;-55
2021/06/06 01:20:10;;;;;;;22.43;7.30;;;;;;;12.74;72.72;99303.89;129974;1090;114857;-55
2021/06/06 01:23:07;;;;;;;13.93;7.33;;;;;;;12.72;72.85;99297.88;130035;1092;22590;-55
2021/06/06 01:25:36;;;;;;;19.05;6.80;;;;;;;12.70;72.80;99300.06;129955;1093;114401;-55
2021/06/06 01:28:30;;;;;;;12.53;7.40;;;;;;;12.68;72.91;99291.34;130076;1093;22577;-55
2021/06/06 01:31:00;;;;;;;15.45;6.98;;;;;;;12.66;72.94;99291.63;129953;1093;114163;-55
2021/06/06 01:33:46;;;;;;;19.00;8.58;;;;;;;12.65;73.13;99292.72;129848;1092;22672;-55
2021/06/06 01:36:18;;;;;;;16.73;7.60;;;;;;;12.67;73.13;99295.17;129959;1093;115526;-56
2021/06/06 01:38:57;;;;;;;13.10;6.95;;;;;;;12.68;73.33;99299.55;130078;1093;22520;-55
2021/06/06 01:41:29;;;;;;;21.38;6.93;;;;;;;12.70;73.01;99295.41;129854;1093;22687;-57
2021/06/06 01:44:00;;;;;;;10.08;6.00;;;;;;;12.73;73.05;99302.25;129758;1093;114151;-58
2021/06/06 01:46:33;;;;;;;11.50;6.60;;;;;;;12.76;73.21;99307.17;129795;1093;23583;-56
2021/06/06 01:49:04;;;;;;;16.85;6.90;;;;;;;12.80;73.30;99312.91;129917;1093;113961;-57
2021/06/06 01:51:36;;;;;;;19.98;6.58;;;;;;;12.83;73.48;99309.63;130050;1092;22636;-56
2021/06/06 01:54:09;;;;;;;11.93;6.98;;;;;;;12.87;73.62;99310.69;129957;1090;22581;-56
2021/06/06 01:56:39;;;;;;;9.33;5.77;;;;;;;12.90;73.35;99304.66;130001;1090;115710;-56
2021/06/06 01:59:25;;;;;;;17.08;7.58;;;;;;;12.93;73.74;99306.84;130096;1090;22515;-56
2021/06/06 02:01:53;;;;;;;11.45;6.85;;;;;;;12.98;73.87;99307.66;129969;1090;113898;-56
2021/06/06 02:04:23;;;;;;;14.80;7.70;;;;;;;12.98;73.86;99302.19;130078;1089;23217;-56
2021/06/06 02:07:09;;;;;;;17.58;6.98;;;;;;;13.07;74.02;99307.89;130004;1090;114261;-55
2021/06/06 02:09:52;;;;;;;18.63;10.13;;;;;;;13.14;73.98;99305.66;130081;1090;22564;-55
2021/06/06 02:12:31;;;;;;;19.68;10.85;;;;;;;13.17;73.63;99307.88;129970;1090;114364;-56
2021/06/06 02:15:10;;;;;;;18.45;12.78;;;;;;;13.22;74.09;99307.86;130077;1090;22562;-55
2021/06/06 02:17:48;;;;;;;18.38;11.13;;;;;;;13.25;74.06;99303.75;130064;1093;23041;-55
2021/06/06 02:20:22;;;;;;;16.45;10.80;;;;;;;13.30;73.71;99309.18;129997;1090;113865;-56
2021/06/06 02:22:50;;;;;;;22.25;11.65;;;;;;;13.35;74.04;99306.43;130125;1090;22654;-56
2021/06/06 02:25:19;;;;;;;23.20;10.70;;;;;;;13.39;73.85;99299.30;130005;1090;114309;-56
2021/06/06 02:28:24;;;;;;;17.93;10.80;;;;;;;13.43;73.37;99311.30;130072;1090;22536;-57
2021/06/06 02:31:12;;;;;;;19.20;9.73;;;;;;;13.47;73.39;99309.64;129998;1090;115327;-56
2021/06/06 02:34:04;;;;;;;;;;;;;;;13.50;73.24;99298.14;130153;1089;22669;-56
2021/06/06 02:36:34;;;;;;;19.55;8.35;;;;;;;13.55;73.49;99298.13;130004;1090;100610;-56
2021/06/06 02:39:12;;;;;;;16.98;9.88;;;;;;;13.58;73.76;99300.27;130066;1090;23371;-55
2021/06/06 02:41:57;;;;;;;17.10;10.03;;;;;;;13.63;73.60;99302.17;125449;1090;22777;-55
2021/06/06 02:44:29;;;;;;;14.60;8.90;;;;;;;13.65;73.54;99302.70;130034;1090;114527;-56
2021/06/06 02:47:06;;;;;;;14.38;8.53;;;;;;;13.68;73.65;99300.23;130121;1090;23312;-55
2021/06/06 02:49:41;;;;;;;17.30;8.55;;;;;;;13.71;73.93;99304.30;130003;1090;114050;-56
2021/06/06 02:52:17;;;;;;;17.40;9.95;;;;;;;13.74;73.72;99304.55;130101;1090;23512;-56
2021/06/06 02:54:54;;;;;;;16.78;9.65;;;;;;;13.77;73.49;99314.13;129981;1090;114316;-56
2021/06/06 02:57:34;;;;;;;15.80;9.65;;;;;;;13.79;73.47;99315.48;130084;1090;22594;-55
2021/06/06 03:00:14;;;;;;;15.53;8.78;;;;;;;13.83;73.12;99314.92;130069;1090;22598;-56
2021/06/06 03:02:46;;;;;;;18.90;9.15;;;;;;;13.87;73.07;99313.23;129991;1090;114993;-55
2021/06/06 03:05:17;;;;;;;14.93;8.83;;;;;;;13.92;72.80;99315.94;130067;1090;22669;-56
2021/06/06 03:07:49;;;;;;;17.70;9.03;;;;;;;13.97;72.75;99315.91;129992;1090;114583;-57
2021/06/06 03:10:20;;;;;;;14.35;8.50;;;;;;;14.03;73.01;99318.31;130111;1088;22705;-55
2021/06/06 03:12:50;;;;;;;19.03;10.20;;;;;;;14.09;73.44;99324.58;130013;1089;114138;-56
2021/06/06 03:15:18;;;;;;;17.80;9.70;;;;;;;14.13;73.09;99321.00;130051;1090;22664;-57
2021/06/06 03:17:52;;;;;;;19.68;8.18;;;;;;;14.19;72.25;99326.41;130119;1090;22619;-56
2021/06/06 03:20:32;;;;;;;19.85;13.00;;;;;;;14.23;71.97;99328.30;129971;1090;114029;-56
2021/06/06 03:23:01;;;;;;;18.85;11.20;;;;;;;14.30;72.52;99328.78;130093;1090;22612;-57
2021/06/06 03:25:42;;;;;;;21.90;13.25;;;;;;;14.36;72.63;99321.34;130003;1090;114562;-57
2021/06/06 03:28:13;;;;;;;20.98;13.25;;;;;;;14.43;72.68;99336.37;130141;1090;22556;-57
2021/06/06 03:30:56;;;;;;;24.53;12.25;;;;;;;14.48;72.53;99330.03;129990;1090;114746;-55
2021/06/06 03:33:39;;;;;;;14.70;9.48;;;;;;;14.55;72.97;99335.20;130076;1090;22650;-56
2021/06/06 03:36:08;;;;;;;13.03;7.10;;;;;;;14.58;71.59;99334.59;130118;1090;22817;-56
2021/06/06 03:38:38;;;;;;;19.68;9.30;;;;;;;14.63;71.56;99331.81;129966;1090;114056;-56
2021/06/06 03:41:07;;;;;;;16.95;8.83;;;;;;;14.67;71.83;99330.13;130097;1090;22560;-56
2021/06/06 03:43:40;;;;;;;17.25;9.13;;;;;;;14.72;72.17;99327.32;129992;1090;113880;-56
2021/06/06 03:46:08;;;;;;;14.90;8.08;;;;;;;14.76;72.14;99329.20;130093;1090;22715;-56
2021/06/06 03:48:37;;;;;;;16.60;7.43;;;;;;;14.81;71.57;99333.83;130023;1090;114391;-56
2021/06/06 03:51:07;;;;;;;21.30;7.38;;;;;;;14.83;70.12;99332.44;130087;1090;22567;-56
2021/06/06 03:53:38;;;;;;;18.45;8.70;;;;;;;14.89;69.46;99337.84;130109;1090;22650;-56
2021/06/06 03:56:07;;;;;;;17.70;10.00;;;;;;;14.92;68.89;99326.30;130048;1090;114859;-57
2021/06/06 03:58:36;;;;;;;29.58;9.93;;;;;;;14.95;68.79;99332.03;130111;1090;24160;-56
2021/06/06 04:01:06;;;;;;;18.05;8.95;;;;;;;14.96;69.15;99314.47;129966;1090;115706;-56
2021/06/06 04:03:34;;;;;;;22.23;8.93;;;;;;;15.00;68.86;99304.55;130105;1090;22635;-57
2021/06/06 04:06:04;;;;;;;17.63;8.03;;;;;;;15.04;69.78;99308.32;130128;1090;23469;-55
2021/06/06 04:08:38;;;;;;;22.13;9.45;;;;;;;15.08;69.69;99305.81;129974;1090;114839;-55
2021/06/06 04:11:09;;;;;;;15.58;9.18;;;;;;;15.11;69.78;99302.48;130072;1090;23180;-55
2021/06/06 04:13:43;;;;;;;16.78;9.23;;;;;;;15.16;70.98;99302.41;130012;1090;114047;-54
2021/06/06 04:16:11;;;;;;;25.48;10.45;;;;;;;15.21;71.52;99313.34;130110;1090;24651;-55
2021/06/06 04:18:41;;;;;;;17.30;8.95;;;;;;;15.26;71.62;99320.70;129975;1090;114784;-55
2021/06/06 04:21:18;;;;;;;12.75;7.50;;;;;;;15.29;71.25;99309.14;130120;1090;22556;-55
2021/06/06 04:23:47;;;;;;;13.05;6.75;;;;;;;15.32;70.56;99309.34;130103;1090;22589;-55
2021/06/06 04:26:17;;;;;;;14.98;6.58;;;;;;;15.37;69.60;99311.22;130045;1090;114042;-55
2021/06/06 04:28:48;;;;;;;18.03;7.73;;;;;;;15.41;69.32;99304.85;130135;1089;22625;-55
2021/06/06 04:31:21;;;;;;;24.68;12.73;;;;;;;15.45;69.31;99311.36;129973;1090;115241;-56
2021/06/06 04:33:51;;;;;;;13.20;7.08;;;;;;;15.49;69.03;99314.34;130128;1089;23334;-57
2021/06/06 04:36:19;;;;;;;14.30;7.15;;;;;;;15.50;68.47;99308.56;130115;1090;22977;-56
2021/06/06 04:38:48;;;;;;;13.73;6.78;;;;;;;15.56;68.03;99309.35;130002;1088;114086;-57
2021/06/06 04:41:17;;;;;;;13.63;7.78;;;;;;;15.63;68.77;99304.30;130075;1090;22657;-57
2021/06/06 04:43:45;;;;;;;12.50;7.05;;;;;;;15.68;68.98;99317.97;130018;1090;114739;-56
2021/06/06 04:46:18;;;;;;;18.08;7.73;;;;;;;15.73;69.12;99317.88;130079;1090;22679;-56
2021/06/06 04:48:48;;;;;;;13.20;7.60;;;;;;;15.79;69.76;99330.43;130039;1090;113970;-56
2021/06/06 04:51:19;;;;;;;10.20;6.25;;;;;;;15.84;69.08;99329.55;130138;1090;22547;-56
2021/06/06 04:54:06;;;;;;;10.90;5.98;;;;;;;15.89;68.72;99323.95;130083;1090;23189;-56
2021/06/06 04:56:34;;;;;;;8.33;5.45;;;;;;;15.94;68.15;99323.89;129962;1090;114121;-57
2021/06/06 04:59:03;;;;;;;16.20;5.43;;;;;;;15.97;68.51;99323.30;130086;1090;22655;-56
2021/06/06 05:01:33;;;;;;;10.93;5.70;;;;;;;16.02;68.59;99319.64;130014;1090;114606;-57
2021/06/06 05:04:07;;;;;;;8.00;5.08;;;;;;;16.07;69.04;99322.31;130137;1089;22619;-57
2021/06/06 05:06:37;;;;;;;10.40;5.80;;;;;;;16.12;69.23;99325.00;130019;1089;113812;-58
2021/06/06 05:09:06;;;;;;;10.75;6.08;;;;;;;16.15;69.36;99319.73;130077;1090;22624;-57
2021/06/06 05:11:35;;;;;;;14.33;6.03;;;;;;;16.22;68.97;99328.39;130091;1090;22629;-57
2021/06/06 05:14:05;;;;;;;11.33;6.85;;;;;;;16.27;68.92;99324.75;129998;1090;114064;-57
2021/06/06 05:16:34;;;;;;;14.05;7.13;;;;;;;16.32;68.61;99318.33;130113;1090;23105;-58
2021/06/06 05:19:03;;;;;;;12.20;7.10;;;;;;;16.37;68.92;99324.58;130054;1090;113990;-57
2021/06/06 05:21:32;;;;;;;13.28;6.58;;;;;;;16.42;69.61;99323.68;130106;1090;22609;-57
2021/06/06 05:24:03;;;;;;;13.58;5.85;;;;;;;16.49;69.70;99326.84;130108;1090;22524;-57
2021/06/06 05:28:36;;;;;;;11.60;5.50;;;;;;;16.55;68.41;99331.16;125656;1091;22775;-57
2021/06/06 05:31:07;;;;;;;10.65;5.65;;;;;;;16.57;67.56;99323.42;125304;1090;113934;-56
2021/06/06 05:33:35;;;;;;;13.68;5.05;;;;;;;16.59;67.44;99323.94;129789;1092;22558;-58
2021/06/06 05:36:08;;;;;;;6.95;4.33;;;;;;;16.61;66.44;99332.67;129784;1093;22565;-57
2021/06/06 05:38:37;;;;;;;11.80;4.50;;;;;;;16.62;65.81;99334.31;129646;1092;113839;-57
2021/06/06 05:41:06;;;;;;;8.13;4.23;;;;;;;16.64;65.63;99334.86;129825;1093;22600;-58
2021/06/06 05:43:37;;;;;;;6.98;4.38;;;;;;;16.68;66.27;99335.08;129858;1093;113746;-57
2021/06/06 05:46:07;;;;;;;9.38;4.83;;;;;;;16.71;66.17;99328.98;129868;1093;23409;-57
2021/06/06 05:48:37;;;;;;;7.88;3.63;;;;;;;16.74;65.63;99320.09;129928;1093;113530;-58
2021/06/06 05:51:05;;;;;;;11.23;5.15;;;;;;;16.77;65.76;99322.25;130049;1092;22530;-57
2021/06/06 05:53:56;;;;;;;9.13;5.73;;;;;;;16.85;66.10;99318.80;130005;1093;22545;-57
2021/06/06 05:56:25;;;;;;;9.28;4.58;;;;;;;16.91;66.13;99325.83;129960;1093;113822;-58
2021/06/06 05:58:54;;;;;;;8.93;4.20;;;;;;;16.95;66.28;99321.36;130034;1092;22558;-57
2021/06/06 06:01:22;;;;;;;11.08;4.30;;;;;;;17.00;65.16;99315.77;129951;1093;113680;-55
2021/06/06 06:03:50;;;;;;;8.80;4.25;;;;;;;17.06;64.97;99317.27;130005;1093;24143;-55
2021/06/06 06:06:19;;;;;;;9.63;5.03;;;;;;;17.11;65.75;99311.68;129804;1093;22574;-54
2021/06/06 06:08:48;;;;;;;8.03;5.40;;;;;;;17.19;66.15;99319.21;129673;1093;113467;-55
2021/06/06 06:11:18;;;;;;;12.80;5.43;;;;;;;17.25;66.04;99318.00;129821;1093;22576;-54
2021/06/06 06:13:48;;;;;;;10.68;4.80;;;;;;;17.27;65.70;99306.68;129669;1093;113911;-57
2021/06/06 06:16:31;;;;;;;11.73;4.33;;;;;;;17.39;66.30;99319.92;129818;1093;22584;-57
2021/06/06 06:19:13;;;;;;;6.63;2.70;;;;;;;17.47;63.36;99321.94;129686;1093;113847;-58
2021/06/06 06:21:42;;;;;;;3.10;2.58;;;;;;;17.52;62.88;99321.84;129850;1092;22580;-56
2021/06/06 06:24:11;;;;;;;3.93;2.70;;;;;;;17.58;61.85;99328.88;129848;1092;22533;-57
2021/06/06 06:26:40;;;;;;;8.60;2.80;;;;;;;17.63;61.75;99321.33;129713;1093;113429;-58
2021/06/06 06:29:29;;;;;;;4.88;2.85;;;;;;;17.69;61.38;99321.23;129810;1092;22628;-56
2021/06/06 06:32:23;;;;;;;4.50;2.68;;;;;;;17.74;62.28;99315.62;129740;1093;113584;-57
2021/06/06 06:34:52;;;;;;;6.78;2.35;;;;;;;17.78;60.52;99320.17;129867;1093;22616;-57
2021/06/06 06:37:22;;;;;;;2.90;2.15;;;;;;;17.81;59.49;99315.99;129666;1092;114013;-58
2021/06/06 06:39:50;;;;;;;4.25;2.35;;;;;;;17.85;58.85;99311.50;129790;1093;22546;-56
2021/06/06 06:42:20;;;;;;;4.88;2.28;;;;;;;17.87;57.97;99309.25;129827;1093;22535;-57
2021/06/06 06:44:53;;;;;;;6.35;2.23;;;;;;;17.90;57.29;99308.60;129633;1093;114476;-57
2021/06/06 06:47:24;;;;;;;3.43;1.95;;;;;;;17.92;56.45;99311.87;129784;1093;23125;-59
2021/06/06 06:49:55;;;;;;;5.38;2.28;;;;;;;17.94;56.31;99306.86;129632;1092;113677;-56
2021/06/06 06:52:28;;;;;;;7.60;2.35;;;;;;;17.96;56.19;99318.39;129819;1092;22644;-57
2021/06/06 06:54:57;;;;;;;4.08;2.13;;;;;;;17.96;55.99;99312.88;129677;1092;114901;-57
2021/06/06 06:57:25;;;;;;;5.18;2.00;;;;;;;17.96;57.03;99307.37;129789;1092;22629;-58
2021/06/06 06:59:53;;;;;;;2.80;1.80;;;;;;;17.97;56.50;99312.58;129810;1093;22472;-58
2021/06/06 07:02:22;;;;;;;8.90;2.30;;;;;;;17.97;56.88;99311.76;129713;1093;113461;-56
2021/06/06 07:04:53;;;;;;;7.73;2.60;;;;;;;17.94;57.27;99307.68;129828;1093;22533;-57
2021/06/06 07:07:21;;;;;;;4.70;1.90;;;;;;;17.93;56.84;99305.23;129675;1092;113880;-57
2021/06/06 07:09:50;;;;;;;4.28;2.10;;;;;;;17.91;57.97;99308.30;129853;1093;22628;-57
2021/06/06 07:12:19;;;;;;;3.35;1.88;;;;;;;17.92;58.12;99306.35;129795;1093;22599;-57
2021/06/06 07:15:09;;;;;;;8.50;1.98;;;;;;;17.89;59.08;99296.77;129697;1093;113575;-57
2021/06/06 07:17:38;;;;;;;4.28;2.08;;;;;;;17.88;58.89;99297.10;129775;1092;22556;-57
2021/06/06 07:20:11;;;;;;;5.08;2.40;;;;;;;17.87;58.92;99289.95;129715;1093;113618;-57
2021/06/06 07:22:40;;;;;;;2.33;1.60;;;;;;;17.86;58.11;99291.89;129827;1093;23192;-57
2021/06/06 07:25:09;;;;;;;3.58;2.20;;;;;;;17.87;59.82;99293.53;129715;1093;113786;-57
2021/06/06 07:27:39;;;;;;;6.70;2.00;;;;;;;17.88;60.76;99295.16;129797;1093;22566;-57
2021/06/06 07:30:09;;;;;;;5.73;2.30;;;;;;;17.88;61.10;99292.41;129818;1093;22587;-57
2021/06/06 07:32:37;;;;;;;5.43;1.93;;;;;;;17.89;61.25;99295.98;129653;1093;113681;-57
2021/06/06 07:35:06;;;;;;;2.85;1.73;;;;;;;17.87;58.84;99295.47;129849;1092;22585;-57
2021/06/06 07:37:35;;;;;;;4.00;2.00;;;;;;;17.81;59.33;99292.00;129710;1093;113610;-57
2021/06/06 07:40:05;;;;;;;4.45;1.55;;;;;;;17.86;58.28;99296.59;129799;1093;22530;-56
2021/06/06 07:42:34;;;;;;;2.83;1.75;;;;;;;17.86;57.01;99302.10;129836;1091;22594;-56
2021/06/06 07:45:08;;;;;;;2.83;1.40;;;;;;;17.87;57.24;99304.55;129732;1093;113844;-57
2021/06/06 07:47:40;;;;;;;9.18;1.70;;;;;;;17.87;58.01;99307.31;129832;1092;22577;-57
2021/06/06 07:50:11;;;;;;;9.20;2.23;;;;;;;17.89;57.59;99309.76;129730;1093;113661;-58
2021/06/06 07:52:39;;;;;;;4.83;1.80;;;;;;;17.90;57.66;99312.17;129833;1092;22545;-57
2021/06/06 07:55:10;;;;;;;4.40;1.70;;;;;;;17.91;57.95;99316.56;129741;1093;114590;-56
2021/06/06 07:57:39;;;;;;;4.10;2.05;;;;;;;17.90;58.73;99314.93;129819;1093;22591;-59
2021/06/06 08:00:10;;;;;;;7.75;2.18;;;;;;;17.91;57.62;99313.81;129840;1092;22516;-59
2021/06/06 08:02:41;;;;;;;3.78;1.75;;;;;;;17.93;57.94;99313.50;129713;1093;113437;-58
2021/06/06 08:05:09;;;;;;;5.53;1.95;;;;;;;17.93;58.28;99308.80;129798;1093;22571;-58
2021/06/06 08:07:38;;;;;;;7.20;2.03;;;;;;;17.94;58.92;99310.44;129695;1093;113675;-58
2021/06/06 08:10:07;;;;;;;2.08;1.70;;;;;;;17.96;58.54;99310.13;129817;1092;22545;-58
2021/06/06 08:12:37;;;;;;;24.70;5.33;;;;;;;17.96;58.77;99313.70;129812;1093;22604;-58
2021/06/06 08:15:08;;;;;;;5.48;1.80;;;;;;;17.96;58.13;99316.45;129728;1093;113620;-59
2021/06/06 08:17:36;;;;;;;20.38;3.45;;;;;;;17.97;58.28;99318.09;129823;1093;23604;-59
2021/06/06 08:20:11;;;;;;;3.78;2.20;;;;;;;17.97;58.26;99318.09;129726;1092;113781;-59
2021/06/06 08:22:43;;;;;;;18.48;4.63;;;;;;;17.98;58.46;99319.72;129807;1093;22544;-58
2021/06/06 08:25:13;;;;;;;5.28;2.00;;;;;;;17.99;57.62;99324.11;129716;1093;113979;-57
2021/06/06 08:27:43;;;;;;;3.53;1.85;;;;;;;17.99;57.08;99313.08;129812;1092;22649;-58
2021/06/06 08:30:49;;;;;;;4.68;1.90;;;;;;;17.99;56.42;99324.11;129808;1093;22589;-57
2021/06/06 08:33:18;;;;;;;9.23;2.33;;;;;;;17.99;56.06;99321.35;129667;1092;113740;-56
2021/06/06 08:35:55;;;;;;;5.75;2.35;;;;;;;17.99;56.44;99328.80;129876;1093;22529;-57
2021/06/06 08:38:24;;;;;;;7.80;2.03;;;;;;;17.97;57.24;99326.36;129712;1093;113706;-57
2021/06/06 08:41:01;;;;;;;5.63;2.50;;;;;;;17.96;56.86;99315.64;129806;1093;22543;-56
2021/06/06 08:43:39;;;;;;;10.13;2.13;;;;;;;17.96;56.19;99318.39;129675;1093;114142;-56
2021/06/06 08:46:08;;;;;;;2.83;1.93;;;;;;;17.98;58.20;99321.66;129763;1092;22528;-58
2021/06/06 08:48:37;;;;;;;6.75;2.18;;;;;;;17.97;58.27;99314.52;129857;1093;22759;-58
2021/06/06 08:51:31;;;;;;;10.05;2.15;;;;;;;17.95;58.56;99320.34;129714;1093;113648;-58
2021/06/06 08:54:15;;;;;;;3.08;2.18;;;;;;;17.93;58.50;99327.28;129777;1092;22546;-58
2021/06/06 08:56:44;;;;;;;7.25;2.48;;;;;;;17.91;58.75;99322.08;129680;1093;114476;-58
2021/06/06 08:59:18;;;;;;;6.70;2.10;;;;;;;17.89;58.96;99321.56;129791;1093;22526;-59
2021/06/06 09:02:01;;;;;;;4.03;2.10;;;;;;;17.89;59.10;99326.30;129679;1092;113507;-56
2021/06/06 09:04:33;;;;;;;7.28;2.48;;;;;;;17.89;58.82;99323.54;129812;1093;22540;-56
2021/06/06 09:07:27;;;;;;;10.40;2.90;;;;;;;17.88;59.21;99319.15;129705;1093;114195;-56
2021/06/06 09:09:59;;;;;;;5.98;1.88;;;;;;;17.87;59.41;99312.83;129825;1093;22545;-56
2021/06/06 09:12:27;;;;;;;9.03;2.28;;;;;;;17.88;59.71;99310.88;129855;1092;22599;-56
2021/06/06 09:14:56;;;;;;;8.15;2.53;;;;;;;17.89;61.61;99312.52;129709;1093;113435;-57
2021/06/06 09:17:38;;;;;;;7.53;2.98;;;;;;;17.88;61.85;99305.37;129860;1092;23043;-57
2021/06/06 09:20:21;;;;;;;10.43;3.20;;;;;;;17.89;62.23;99307.78;129744;1092;113570;-55
2021/06/06 09:22:49;;;;;;;6.08;3.35;;;;;;;17.91;63.21;99302.78;129825;1092;23422;-56
2021/06/06 09:25:33;;;;;;;8.60;3.03;;;;;;;17.94;64.08;99302.16;129710;1093;114640;-57
2021/06/06 09:28:04;;;;;;;6.85;3.35;;;;;;;17.96;64.10;99299.91;129837;1093;22552;-56
2021/06/06 09:30:34;;;;;;;9.03;3.00;;;;;;;17.99;64.33;99290.21;129796;1092;23736;-56
2021/06/06 09:33:41;;;;;;;10.05;3.15;;;;;;;18.05;65.17;99291.70;129682;1092;113668;-56
2021/06/06 09:36:20;;;;;;;6.13;3.28;;;;;;;18.10;64.75;99290.77;129791;1093;22668;-55
2021/06/06 09:39:10;;;;;;;7.53;4.28;;;;;;;18.14;66.28;99287.09;129666;1093;113825;-54
2021/06/06 09:41:42;;;;;;;10.40;4.65;;;;;;;18.20;67.04;99290.52;129704;1096;22641;-58
2021/06/06 09:44:14;;;;;;;5.05;4.10;;;;;;;18.25;66.95;99293.97;129642;1093;114130;-59
2021/06/06 09:46:59;;;;;;;6.48;3.65;;;;;;;18.32;66.73;99288.02;129763;1093;22548;-56
2021/06/06 09:49:31;;;;;;;5.18;3.18;;;;;;;18.41;65.50;99294.40;129636;1094;114756;-58
2021/06/06 09:52:21;;;;;;;5.33;3.45;;;;;;;18.49;66.16;99290.05;129763;1093;22632;-56
2021/06/06 09:54:54;;;;;;;9.25;4.55;;;;;;;18.57;65.55;99284.59;129740;1095;22554;-59
2021/06/06 09:57:25;;;;;;;7.30;4.53;;;;;;;18.65;65.45;99291.31;129655;1093;113481;-57
2021/06/06 10:00:05;;;;;;;11.78;4.35;;;;;;;18.69;65.03;99293.13;129723;1093;22680;-59
2021/06/06 10:02:41;;;;;;;11.53;4.88;;;;;;;18.75;64.42;99279.20;129653;1093;114285;-59
2021/06/06 10:05:30;;;;;;;7.73;3.88;;;;;;;18.81;63.59;99291.72;129779;1096;22566;-61
2021/06/06 10:08:24;;;;;;;7.55;2.95;;;;;;;18.86;63.57;99284.12;129599;1094;113966;-58
2021/06/06 10:11:13;;;;;;;11.23;3.28;;;;;;;18.87;62.83;99277.47;129741;1096;22635;-56
2021/06/06 10:13:45;;;;;;;10.78;4.05;;;;;;;18.92;62.90;99284.77;129986;1093;114682;-56
2021/06/06 10:16:17;;;;;;;7.63;3.38;;;;;;;18.95;63.19;99273.09;130125;1090;22632;-56
2021/06/06 10:19:21;;;;;;;6.18;3.40;;;;;;;18.99;62.97;99277.67;130009;1092;113875;-58
2021/06/06 10:21:50;;;;;;;6.60;4.45;;;;;;;19.04;63.27;99276.72;130113;1092;22670;-58
2021/06/06 10:24:36;;;;;;;9.15;4.53;;;;;;;19.08;63.39;99275.74;130094;1093;22636;-58
2021/06/06 10:27:10;;;;;;;11.78;4.03;;;;;;;19.13;63.29;99263.74;129984;1090;113961;-56
2021/06/06 10:30:08;;;;;;;6.63;4.15;;;;;;;19.16;62.55;99265.88;130100;1089;22890;-56
2021/06/06 10:32:46;;;;;;;9.10;4.25;;;;;;;19.19;63.23;99267.97;129992;1090;113639;-56
2021/06/06 10:35:25;;;;;;;9.03;4.13;;;;;;;19.24;64.23;99264.25;130106;1089;22609;-56
2021/06/06 10:37:55;;;;;;;9.95;5.13;;;;;;;19.32;64.96;99256.00;129969;1089;114292;-56
2021/06/06 10:40:43;;;;;;;10.18;4.23;;;;;;;19.42;64.38;99250.16;130093;1090;22533;-56
2021/06/06 10:43:25;;;;;;;8.10;2.88;;;;;;;19.53;62.07;99249.87;130013;1089;114377;-56
2021/06/06 10:46:27;;;;;;;5.38;2.83;;;;;;;19.63;60.09;99241.25;130125;1093;22620;-56
2021/06/06 10:49:08;;;;;;;11.38;3.15;;;;;;;19.78;58.54;99240.77;130074;1093;23654;-57
2021/06/06 10:51:57;;;;;;;5.30;2.80;;;;;;;19.89;58.10;99230.21;129947;1091;113795;-56
2021/06/06 10:54:25;;;;;;;7.88;3.30;;;;;;;19.99;57.75;99227.91;130100;1093;22592;-56
2021/06/06 10:56:56;;;;;;;7.97;2.67;;;;;;;20.08;57.30;99228.70;130007;1092;114318;-56
2021/06/06 10:59:34;;;;;;;7.63;3.35;;;;;;;20.15;56.96;99228.22;130085;1092;22558;-56
2021/06/06 11:02:04;;;;;;;5.13;2.68;;;;;;;20.19;56.07;99226.43;130005;1090;113928;-57
2021/06/06 11:04:34;;;;;;;11.45;2.90;;;;;;;20.21;54.67;99215.01;130112;1089;22529;-56
2021/06/06 11:07:15;;;;;;;7.05;2.70;;;;;;;20.21;54.00;99220.54;130111;1090;22577;-57
2021/06/06 11:10:08;;;;;;;7.68;2.55;;;;;;;20.20;52.86;99218.95;130013;1090;113385;-55
2021/06/06 11:12:57;;;;;;;7.88;2.38;;;;;;;20.19;52.76;99220.09;130142;1090;22608;-57
2021/06/06 11:15:35;;;;;;;4.63;2.38;;;;;;;20.16;52.01;99204.14;129989;1090;113416;-56
2021/06/06 11:18:16;;;;;;;5.80;2.65;;;;;;;20.12;51.65;99207.55;130091;1090;22660;-56
2021/06/06 11:21:05;;;;;;;7.28;2.70;;;;;;;20.08;51.34;99209.34;129995;1090;113826;-56
2021/06/06 11:23:45;;;;;;;9.30;2.75;;;;;;;20.04;51.59;99204.81;130111;1090;22577;-56
2021/06/06 11:26:40;;;;;;;6.35;2.38;;;;;;;20.01;50.95;99200.75;129978;1093;113780;-56
2021/06/06 11:29:19;;;;;;;10.23;2.38;;;;;;;19.98;50.23;99204.16;130112;1089;23122;-56
2021/06/06 11:31:59;;;;;;;4.60;2.70;;;;;;;19.95;49.45;99199.28;130004;1090;113526;-56
2021/06/06 11:34:32;;;;;;;4.78;2.50;;;;;;;19.92;49.74;99199.12;130100;1090;22548;-56
2021/06/06 11:37:29;;;;;;;7.83;2.43;;;;;;;19.92;49.85;99199.12;130089;1090;23341;-57
2021/06/06 11:40:07;;;;;;;3.43;2.30;;;;;;;19.92;49.44;99191.63;129964;1090;113473;-56
2021/06/06 11:42:40;;;;;;;3.40;2.20;;;;;;;19.93;50.81;99184.97;130116;1092;22572;-56
2021/06/06 11:45:18;;;;;;;5.43;2.03;;;;;;;19.96;50.62;99187.08;129985;1090;113818;-57
2021/06/06 11:47:57;;;;;;;10.30;2.18;;;;;;;20.01;50.14;99180.58;130089;1093;23091;-57
2021/06/06 11:50:34;;;;;;;4.80;2.48;;;;;;;20.09;50.40;99185.27;130018;1090;115275;-57
2021/06/06 11:53:22;;;;;;;11.93;2.80;;;;;;;20.19;49.32;99178.59;130092;1090;22541;-57